Forside
METAR-TAF:

METAR-TAF

Lufthavne :

Madison, Wisconsin, USA

Breddekreds: 43-08-26N, længdekreds: 089-20-43W, højde: 262 m

Aktuelle vejr

Denne rapport blev lavet for 1 time og 9 minutter siden, kl. 08:53 UTC
Vind stille
Temperatur -2°C
Fugtighed 74%
Tryk 1027 hPa
Sigt: 16.1 km
Overskyet i en højde af 10000 ft

METAR: KMSN 270853Z AUTO 00000KT 10SM OVC100 M02/M06 A3033 RMK AO2 SLP282 T10171061 58004

Tid: 05:02 (10:02 UTC)

Vejrudsigter

Denne rapport blev lavet for 1 time og 6 minutter siden, kl. 08:56 UTC
Foreløbig gælder fra 27 på 09 UTC til 28 på 06 UTC
Vind 4 kt fra varierende retninger
Sigt: 10 km
Spredte skyer i en højde af 18000 ft
Fra 27 på 1600 UTC
Vind 7 kt fra vest
Sigt: 10 km
Nogle få skyer i en højde af 25000 ft
Fra 27 på 2100 UTC
Vind 9 kt fra vestsydvest
Sigt: 10 km
skyfri

TAF: KMSN 270856Z 2709/2806 VRB04KT P6SM SCT180 FM271600 26007KT P6SM FEW250 FM272100 24009KT P6SM SKC

Vejrobservationer og prognoser fra mere end 4000 lufthavne (METAR og TAF).

De gule og røde prikker repræsenterer de meteorologiske stationer.

Flyt musen over at se navnet på stationen.

Så klik over at se vejr observationer og prognoser.

At skifte det kort: Klik på de grønne knapper med et sort kors for at zoome ind; på den grønne knap med en bindestreg for at zoome ud; eller på de grønne pile for tilstødende kort.


METAR-TAF: